• Join FlightAware (Why Join?)
  • Login
  • US Flag 
05:56PM EDT


 

Airport Tracker/Info


-or-


 

Live Flight TrackerFlight Track Log ✈ SWA22 ✈ 05-Apr-2013 ✈ KDAL - KAMA

Flight Track Log - Related Links

Times and Time Zones

All times are in EDT time to prevent confusion due to time zone crossing. See the SWA22 flight status page for this flight to view local times or setup timezone preferences in your user account.

Time Position Orientation Groundspeed Altitude Reporting Facility
EDT Latitude Longitude Course Direction KTS MPH feet Rate Location/Type
02:28PM 32.8167 -96.8167 140° Southeast 194 223 2,500  Level Dallas / Fort Worth TRACON
02:29PM 32.7667 -96.7667 140° Southeast 218 251 5,800 3,060 Climbing Dallas / Fort Worth TRACON
02:30PM 32.7000 -96.7667 180° South 258 297 8,700 1,740 Climbing Dallas / Fort Worth TRACON
02:32PM 32.7092 -96.9294 274° West 265 305 10,800 1,320 Climbing Fort Worth Center
02:33PM 32.7514 -97.0183 299° West 316 364 12,600 2,640 Climbing Fort Worth Center
02:34PM 32.8058 -97.1292 300° West 356 410 16,100 2,700 Climbing Fort Worth Center
02:35PM 32.8519 -97.2306 298° West 356 410 18,000 2,100 Climbing Fort Worth Center
02:36PM 32.9044 -97.3392 300° West 362 417 20,400 1,980 Climbing Fort Worth Center
02:37PM 32.9522 -97.4406 299° West 376 433 22,000 1,800 Climbing Fort Worth Center
02:38PM 33.0128 -97.5694 299° West 385 443 24,100 1,680 Climbing Fort Worth Center
02:39PM 33.0669 -97.6836 300° West 397 457 25,400 1,500 Climbing Fort Worth Center
02:40PM 33.1167 -97.8078 296° West 410 472 27,100 1,860 Climbing Fort Worth Center
02:41PM 33.1558 -97.9369 290° West 416 479 29,200 1,980 Climbing Fort Worth Center
02:42PM 33.1950 -98.0589 291° West 406 467 31,100 1,860 Climbing Fort Worth Center
02:43PM 33.2317 -98.1783 290° West 400 460 33,000 1,740 Climbing Fort Worth Center
02:44PM 33.2686 -98.2956 291° West 382 440 34,600 1,500 Climbing Fort Worth Center
02:45PM 33.3011 -98.4028 290° West 358 412 36,000 660 Climbing Fort Worth Center
02:46PM 33.3358 -98.5050 292° West 353 406 36,000  Level Fort Worth Center
02:47PM 33.3808 -98.6150 296° West 358 412 36,000  Level Fort Worth Center
02:48PM 33.4444 -98.7153 307° West 364 419 36,000  Level Fort Worth Center
02:49PM 33.5100 -98.8161 308° West 378 435 36,000  Level Fort Worth Center
02:50PM 33.5736 -98.9244 305° West 395 455 36,000  Level Fort Worth Center
02:51PM 33.6369 -99.0253 307° West 390 449 36,000  Level Fort Worth Center
02:52PM 33.7003 -99.1261 307° West 379 436 36,000  Level Fort Worth Center
02:53PM 33.7636 -99.2325 306° West 379 436 36,000  Level Fort Worth Center
02:54PM 33.8269 -99.3286 308° West 385 443 36,000  Level Fort Worth Center
02:55PM 33.8897 -99.4378 305° West 385 443 36,000  Level Fort Worth Center
02:56PM 33.9550 -99.5394 308° West 391 450 36,000  Level Fort Worth Center
02:57PM 34.0178 -99.6411 307° West 391 450 36,000  Level Fort Worth Center
02:58PM 34.0806 -99.7481 305° West 391 450 36,000  Level Fort Worth Center
03:00PM 34.2197 -99.9775 306° West 386 444 36,000 -120 Level Albuquerque Center
03:01PM 34.2836 -100.0844 306° West 388 447 35,800 -1,500 Descending Albuquerque Center
03:02PM 34.3494 -100.1925 306° West 389 448 33,000 -2,820 Descending Albuquerque Center
03:03PM 34.4139 -100.3008 306° West 394 453 30,000 -2,820 Descending Albuquerque Center
03:04PM 34.4911 -100.4289 306° West 395 455 27,200 -2,520 Descending Albuquerque Center
03:05PM 34.5531 -100.5314 306° West 386 444 24,900 -1,680 Descending Albuquerque Center
03:06PM 34.6114 -100.6275 306° West 370 426 23,800 -1,800 Descending Albuquerque Center
03:07PM 34.6653 -100.7222 305° West 350 403 21,300 -2,220 Descending Albuquerque Center
03:08PM 34.7206 -100.8144 306° West 342 394 19,300 -1,140 Descending Albuquerque Center
03:09PM 34.7739 -100.9050 306° West 334 384 19,000 -1,680 Descending Albuquerque Center
03:10PM 34.8356 -101.0100 306° West 321 369 15,900 -2,760 Descending Albuquerque Center
03:12PM 34.8925 -101.1069 306° West 344 396 13,300 -2,040 Descending Albuquerque Center
03:13PM 34.9558 -101.1906 313° West 340 391 11,700 -1,440 Descending Albuquerque Center
03:14PM 35.0122 -101.2683 312° West 316 364 10,400 -1,200 Descending Albuquerque Center
03:15PM 35.0650 -101.3411 312° West 296 341 9,300 -1,320 Descending Albuquerque Center
03:16PM 35.1158 -101.4125 311° West 286 329 7,700 -1,560 Descending Albuquerque Center
03:17PM 35.1756 -101.4953 311° West 278 320 6,100 -1,260 Descending Albuquerque Center
03:18PM 35.2256 -101.5617 313° West 272 313 5,100 -540 Descending Albuquerque Center
03:19PM 35.2711 -101.6111 318° Northwest 244 281 5,100 -240 Level Albuquerque Center
03:20PM 35.2694 -101.6533 267° West 185 213 4,700 -600 Descending Albuquerque Center
03:21PM 35.2389 -101.6900 224° Southwest 149 171 3,900 -540 Descending Albuquerque Center
03:22PM 35.2206 -101.7133 226° Southwest 102 117 3,700 -240 Descending Albuquerque Center